createdAt,value
2023-01-26T00:00:02.937Z,12.07
2023-01-26T00:02:50.082Z,11.85
2023-01-26T00:05:40.674Z,11.33
2023-01-26T00:08:28.022Z,12.03
2023-01-26T00:11:18.445Z,11.28
2023-01-26T00:14:05.554Z,11.45
2023-01-26T00:16:54.264Z,11.78
2023-01-26T00:19:41.638Z,11.20
2023-01-26T00:22:29.237Z,12.18
2023-01-26T00:25:16.593Z,12.23
2023-01-26T00:28:03.805Z,11.95
2023-01-26T00:30:50.982Z,11.18
2023-01-26T00:33:37.954Z,10.60
2023-01-26T00:36:25.454Z,11.68
2023-01-26T00:39:12.745Z,11.12
2023-01-26T00:42:09.972Z,11.73
2023-01-26T00:44:57.275Z,12.15
2023-01-26T00:47:44.844Z,11.83
2023-01-26T00:50:33.004Z,11.88
2023-01-26T00:53:20.344Z,11.85
2023-01-26T00:56:08.504Z,11.30
2023-01-26T00:58:55.713Z,11.60
2023-01-26T01:01:43.217Z,11.15
2023-01-26T01:04:31.372Z,11.43
2023-01-26T01:07:18.594Z,10.32
2023-01-26T01:10:06.219Z,10.68
2023-01-26T01:12:53.671Z,10.30
2023-01-26T01:15:43.885Z,10.65
2023-01-26T01:18:31.489Z,9.25
2023-01-26T01:21:19.185Z,8.50
2023-01-26T01:24:06.831Z,7.78
2023-01-26T01:26:53.897Z,7.83
2023-01-26T01:29:41.507Z,7.15
2023-01-26T01:32:28.455Z,7.60
2023-01-26T01:35:15.969Z,8.20
2023-01-26T01:38:03.523Z,8.35
2023-01-26T01:40:50.823Z,7.05
2023-01-26T01:43:38.587Z,6.00
2023-01-26T01:46:37.673Z,6.28
2023-01-26T01:49:33.330Z,6.22
2023-01-26T01:52:25.375Z,6.40
2023-01-26T01:55:16.064Z,5.67
2023-01-26T01:58:05.048Z,6.37
2023-01-26T02:00:52.336Z,6.75
2023-01-26T02:03:41.707Z,5.67
2023-01-26T02:06:38.045Z,4.55
2023-01-26T02:09:46.292Z,5.83
2023-01-26T02:12:34.594Z,5.33
2023-01-26T02:15:21.726Z,5.40
2023-01-26T02:18:10.919Z,5.53
2023-01-26T02:21:04.136Z,6.03
2023-01-26T02:24:15.435Z,5.62
2023-01-26T02:27:03.245Z,5.65
2023-01-26T02:29:51.669Z,6.08
2023-01-26T02:32:39.253Z,5.70
2023-01-26T02:35:26.841Z,5.30
2023-01-26T02:38:14.117Z,5.60
2023-01-26T02:41:04.795Z,4.75
2023-01-26T02:43:52.323Z,4.28
2023-01-26T02:46:39.670Z,4.35
2023-01-26T02:49:44.813Z,4.58
2023-01-26T02:52:32.323Z,4.70
2023-01-26T02:55:29.669Z,4.62
2023-01-26T02:58:16.801Z,3.72
2023-01-26T03:01:04.580Z,3.72
2023-01-26T03:03:51.644Z,4.50
2023-01-26T03:06:38.866Z,4.28
2023-01-26T03:09:26.226Z,4.53
2023-01-26T03:12:13.471Z,4.45
2023-01-26T03:15:18.355Z,4.78
2023-01-26T03:18:26.266Z,4.53
2023-01-26T03:21:35.039Z,5.30
2023-01-26T03:24:40.489Z,5.28
2023-01-26T03:27:28.276Z,4.70
2023-01-26T03:30:18.185Z,5.33
2023-01-26T03:33:05.236Z,5.10
2023-01-26T03:35:55.062Z,5.75
2023-01-26T03:38:42.448Z,6.42
2023-01-26T03:41:47.464Z,5.53
2023-01-26T03:44:52.620Z,5.65
2023-01-26T03:47:57.818Z,5.90
2023-01-26T03:51:02.910Z,6.72
2023-01-26T03:54:08.269Z,5.90
2023-01-26T03:56:55.735Z,6.37
2023-01-26T03:59:43.208Z,7.25
2023-01-26T04:02:48.050Z,7.78
2023-01-26T04:05:52.931Z,7.15
2023-01-26T04:08:40.259Z,7.53
2023-01-26T04:11:27.545Z,7.67
2023-01-26T04:14:36.356Z,8.18
2023-01-26T04:17:40.879Z,7.92
2023-01-26T04:20:46.033Z,7.40
2023-01-26T04:23:33.279Z,6.70
2023-01-26T04:26:20.234Z,6.45
2023-01-26T04:29:10.255Z,6.45
2023-01-26T04:31:57.591Z,5.22
2023-01-26T04:34:44.892Z,5.15
2023-01-26T04:37:32.108Z,6.45
2023-01-26T04:40:20.720Z,5.90
2023-01-26T04:43:07.889Z,6.00
2023-01-26T04:46:03.012Z,5.75
2023-01-26T04:48:50.547Z,6.00
2023-01-26T04:51:37.875Z,6.20
2023-01-26T04:54:25.044Z,5.58
2023-01-26T04:57:12.368Z,5.95
2023-01-26T04:59:59.597Z,5.78
2023-01-26T05:02:46.881Z,4.85
2023-01-26T05:05:38.761Z,5.70
2023-01-26T05:08:26.386Z,4.60
2023-01-26T05:11:13.681Z,5.12
2023-01-26T05:14:00.817Z,5.62
2023-01-26T05:16:48.035Z,5.10
2023-01-26T05:19:36.041Z,5.30
2023-01-26T05:22:23.543Z,5.87
2023-01-26T05:25:11.641Z,5.30
2023-01-26T05:27:59.096Z,5.37
2023-01-26T05:30:47.368Z,4.72
2023-01-26T05:33:34.356Z,4.95
2023-01-26T05:36:21.569Z,5.25
2023-01-26T05:39:09.559Z,5.42
2023-01-26T05:41:57.201Z,5.30
2023-01-26T05:44:44.228Z,5.30
2023-01-26T05:47:31.651Z,6.17
2023-01-26T05:50:19.176Z,5.90
2023-01-26T05:53:06.578Z,4.80
2023-01-26T05:55:53.640Z,4.80
2023-01-26T05:58:41.003Z,4.95
2023-01-26T06:01:28.198Z,5.37
2023-01-26T06:04:15.488Z,5.35
2023-01-26T06:07:03.015Z,5.60
2023-01-26T06:09:50.180Z,5.15
2023-01-26T06:12:38.627Z,5.10
2023-01-26T06:15:26.137Z,5.58
2023-01-26T06:18:13.503Z,4.60
2023-01-26T06:21:01.356Z,4.80
2023-01-26T06:23:48.508Z,4.42
2023-01-26T06:26:35.799Z,5.28
2023-01-26T06:29:23.161Z,5.60
2023-01-26T06:32:13.232Z,5.42
2023-01-26T06:35:00.832Z,5.95
2023-01-26T06:37:51.337Z,6.47
2023-01-26T06:40:38.694Z,7.00
2023-01-26T06:43:25.746Z,6.87
2023-01-26T06:46:14.052Z,7.28
2023-01-26T06:49:03.705Z,6.53
2023-01-26T06:52:03.090Z,7.62
2023-01-26T06:54:51.336Z,7.08
2023-01-26T06:57:38.341Z,6.67
2023-01-26T07:00:25.587Z,5.97
2023-01-26T07:03:12.923Z,6.08
2023-01-26T07:05:59.931Z,6.25
2023-01-26T07:08:47.303Z,5.72
2023-01-26T07:11:34.519Z,5.47
2023-01-26T07:14:21.614Z,5.87
2023-01-26T07:17:08.768Z,5.78
2023-01-26T07:19:56.029Z,6.45
2023-01-26T07:22:43.308Z,5.45
2023-01-26T07:25:30.555Z,5.47
2023-01-26T07:28:17.933Z,6.03
2023-01-26T07:31:06.885Z,6.17
2023-01-26T07:33:53.691Z,5.90
2023-01-26T07:36:40.805Z,6.08
2023-01-26T07:39:28.558Z,6.20
2023-01-26T07:42:15.582Z,6.15
2023-01-26T07:45:03.151Z,5.28
2023-01-26T07:47:50.431Z,5.25
2023-01-26T07:50:38.080Z,5.45
2023-01-26T07:53:26.939Z,5.40
2023-01-26T07:56:16.267Z,6.00
2023-01-26T07:59:03.965Z,5.75
2023-01-26T08:01:52.096Z,6.33
2023-01-26T08:04:39.023Z,4.90
2023-01-26T08:07:26.323Z,5.65
2023-01-26T08:10:14.534Z,5.55
2023-01-26T08:13:02.178Z,6.08
2023-01-26T08:15:49.141Z,5.70
2023-01-26T08:18:36.542Z,6.40
2023-01-26T08:21:23.720Z,5.75
2023-01-26T08:24:13.160Z,5.35
2023-01-26T08:27:00.296Z,5.03
2023-01-26T08:29:47.282Z,5.50
2023-01-26T08:32:35.141Z,4.83
2023-01-26T08:35:22.965Z,5.08
2023-01-26T08:38:10.196Z,5.75
2023-01-26T08:40:57.594Z,6.35
2023-01-26T08:43:44.830Z,5.78
2023-01-26T08:46:32.245Z,5.70
2023-01-26T08:49:19.414Z,5.72
2023-01-26T08:52:06.599Z,6.10
2023-01-26T08:54:53.872Z,6.70
2023-01-26T08:57:41.613Z,6.45
2023-01-26T09:00:30.390Z,7.30
2023-01-26T09:03:17.605Z,6.28
2023-01-26T09:06:06.844Z,5.95
2023-01-26T09:08:53.940Z,6.08
2023-01-26T09:11:41.683Z,6.83
2023-01-26T09:14:28.941Z,6.03
2023-01-26T09:17:16.385Z,7.37
2023-01-26T09:20:04.525Z,6.83
2023-01-26T09:22:52.008Z,6.50
2023-01-26T09:25:40.743Z,6.37
2023-01-26T09:28:27.705Z,7.10
2023-01-26T09:31:15.056Z,6.50
2023-01-26T09:34:02.533Z,6.60
2023-01-26T09:36:49.901Z,6.78
2023-01-26T09:39:36.987Z,6.62
2023-01-26T09:42:48.253Z,7.53
2023-01-26T09:45:38.875Z,7.40
2023-01-26T09:48:44.251Z,7.37
2023-01-26T09:52:03.353Z,7.85
2023-01-26T09:54:53.297Z,7.08
2023-01-26T09:57:49.301Z,8.13
2023-01-26T10:00:42.274Z,7.53
2023-01-26T10:03:50.570Z,7.25
2023-01-26T10:06:38.878Z,8.03
2023-01-26T10:09:30.691Z,8.08
2023-01-26T10:12:29.164Z,7.95
2023-01-26T10:15:25.756Z,8.45
2023-01-26T10:18:15.878Z,8.80
2023-01-26T10:21:06.329Z,8.65
2023-01-26T10:23:53.870Z,8.23
2023-01-26T10:26:41.573Z,8.20
2023-01-26T10:29:28.710Z,8.75
2023-01-26T10:32:18.460Z,8.33
2023-01-26T10:35:06.011Z,8.70
2023-01-26T10:37:53.760Z,8.08
2023-01-26T10:40:45.378Z,8.03
2023-01-26T10:43:38.616Z,8.43
2023-01-26T10:46:40.163Z,8.40
2023-01-26T10:49:28.175Z,8.53
2023-01-26T10:52:24.774Z,8.53
2023-01-26T10:58:01.630Z,8.43
2023-01-26T11:00:51.750Z,8.28
2023-01-26T11:03:40.050Z,7.83
2023-01-26T11:06:30.324Z,8.33
2023-01-26T11:09:24.272Z,7.92
2023-01-26T11:12:14.524Z,8.65
2023-01-26T11:15:05.746Z,8.40
2023-01-26T11:17:57.860Z,8.60
2023-01-26T11:20:54.210Z,7.75
2023-01-26T11:24:08.564Z,7.87
2023-01-26T11:27:07.300Z,7.05
2023-01-26T11:30:14.051Z,6.20
2023-01-26T11:33:04.186Z,7.28
2023-01-26T11:36:00.385Z,6.40
2023-01-26T11:39:05.932Z,5.15
2023-01-26T11:42:08.047Z,6.25
2023-01-26T11:45:01.392Z,6.58
2023-01-26T11:47:54.053Z,7.10
2023-01-26T11:50:44.164Z,6.35
2023-01-26T11:53:58.318Z,7.40
2023-01-26T11:56:57.461Z,7.47
2023-01-26T11:59:54.673Z,6.60
2023-01-26T12:02:44.150Z,7.22
2023-01-26T12:05:46.405Z,6.83
2023-01-26T12:08:45.740Z,7.03
2023-01-26T12:11:41.191Z,7.47
2023-01-26T12:14:40.511Z,6.97
2023-01-26T12:17:40.094Z,7.37
2023-01-26T12:20:42.327Z,7.83
2023-01-26T12:23:50.738Z,7.25
2023-01-26T12:26:40.799Z,7.45
2023-01-26T12:29:48.675Z,8.20
2023-01-26T12:32:35.815Z,8.45
2023-01-26T12:35:34.990Z,8.08
2023-01-26T12:38:31.313Z,8.78
2023-01-26T12:41:21.744Z,8.98
2023-01-26T12:44:30.156Z,8.75
2023-01-26T12:47:26.346Z,10.45
2023-01-26T12:50:19.254Z,9.20
2023-01-26T12:53:21.175Z,9.60
2023-01-26T12:56:14.112Z,8.95
2023-01-26T12:59:04.029Z,8.10
2023-01-26T13:01:51.011Z,9.90
2023-01-26T13:04:39.848Z,9.85
2023-01-26T13:07:38.444Z,8.98
2023-01-26T13:10:29.142Z,9.75
2023-01-26T13:13:19.427Z,10.58
2023-01-26T13:16:22.719Z,8.95
2023-01-26T13:19:13.219Z,9.35
2023-01-26T13:22:00.198Z,9.38
2023-01-26T13:24:49.609Z,8.38
2023-01-26T13:27:42.548Z,8.90
2023-01-26T13:30:35.650Z,9.35
2023-01-26T13:33:25.338Z,7.83
2023-01-26T13:36:18.537Z,9.43
2023-01-26T13:39:15.091Z,9.60
2023-01-26T13:42:02.826Z,8.70
2023-01-26T13:44:53.131Z,9.10
2023-01-26T13:47:43.553Z,9.55
2023-01-26T13:50:39.276Z,8.95
2023-01-26T13:53:57.037Z,9.45
2023-01-26T13:57:06.812Z,9.53
2023-01-26T13:59:59.797Z,9.43
2023-01-26T14:02:49.794Z,9.68
2023-01-26T14:05:36.961Z,9.00
2023-01-26T14:08:25.645Z,9.30
2023-01-26T14:11:19.625Z,9.70
2023-01-26T14:14:07.403Z,9.68
2023-01-26T14:16:55.000Z,10.68
2023-01-26T14:19:42.993Z,8.28
2023-01-26T14:22:30.765Z,10.00
2023-01-26T14:25:20.689Z,9.43
2023-01-26T14:28:09.467Z,8.68
2023-01-26T14:31:02.529Z,9.28
2023-01-26T14:33:55.950Z,9.43
2023-01-26T14:36:43.071Z,9.58
2023-01-26T14:39:30.135Z,9.90
2023-01-26T14:42:20.892Z,9.43
2023-01-26T14:45:13.413Z,9.33
2023-01-26T14:48:04.088Z,9.55
2023-01-26T14:50:51.852Z,9.18
2023-01-26T14:53:39.213Z,10.40
2023-01-26T14:56:34.766Z,10.55
2023-01-26T14:59:38.386Z,10.58
2023-01-26T15:02:28.815Z,10.65
2023-01-26T15:05:18.750Z,10.70
2023-01-26T15:08:08.564Z,10.60
2023-01-26T15:11:05.437Z,11.68
2023-01-26T15:13:56.962Z,11.00
2023-01-26T15:16:54.541Z,10.72
2023-01-26T15:19:42.486Z,11.80
2023-01-26T15:22:29.592Z,10.30
2023-01-26T15:25:23.328Z,11.43
2023-01-26T15:28:25.848Z,10.72
2023-01-26T15:31:16.048Z,11.85
2023-01-26T15:34:03.637Z,11.35
2023-01-26T15:36:52.298Z,11.22
2023-01-26T15:39:39.824Z,11.57
2023-01-26T15:42:30.379Z,12.58
2023-01-26T15:45:23.538Z,11.73
2023-01-26T15:48:10.973Z,11.38
2023-01-26T15:50:58.052Z,12.23
2023-01-26T15:53:45.479Z,11.68
2023-01-26T15:56:33.229Z,11.95
2023-01-26T15:59:20.504Z,11.83
2023-01-26T16:02:21.577Z,11.78
2023-01-26T16:05:11.952Z,11.75
2023-01-26T16:07:59.349Z,11.93
2023-01-26T16:10:46.673Z,12.78
2023-01-26T16:13:34.211Z,11.95
2023-01-26T16:16:21.397Z,11.22
2023-01-26T16:19:08.738Z,12.98
2023-01-26T16:21:55.910Z,12.55
2023-01-26T16:24:43.701Z,12.00
2023-01-26T16:27:30.895Z,12.73
2023-01-26T16:30:19.657Z,13.50
2023-01-26T16:33:06.685Z,13.18
2023-01-26T16:35:54.638Z,13.53
2023-01-26T16:38:42.624Z,12.73
2023-01-26T16:41:32.629Z,12.55
2023-01-26T16:44:21.973Z,12.37
2023-01-26T16:47:10.909Z,12.60
2023-01-26T16:49:58.627Z,13.58
2023-01-26T16:52:46.107Z,12.50
2023-01-26T16:55:33.436Z,13.88
2023-01-26T16:58:21.642Z,13.48
2023-01-26T17:01:17.937Z,15.10
2023-01-26T17:04:05.679Z,12.78
2023-01-26T17:06:53.048Z,13.60
2023-01-26T17:09:40.468Z,13.78
2023-01-26T17:12:27.594Z,13.30
2023-01-26T17:15:15.185Z,13.22
2023-01-26T17:18:02.641Z,14.28
2023-01-26T17:20:50.134Z,12.85
2023-01-26T17:23:38.573Z,12.78
2023-01-26T17:26:25.901Z,13.08
2023-01-26T17:29:14.841Z,12.70
2023-01-26T17:32:02.042Z,12.88
2023-01-26T17:34:49.989Z,12.93
2023-01-26T17:37:38.012Z,13.05
2023-01-26T17:40:25.166Z,13.83
2023-01-26T17:43:13.238Z,13.60
2023-01-26T17:46:11.466Z,13.58
2023-01-26T17:48:58.344Z,14.18
2023-01-26T17:51:46.852Z,13.25
2023-01-26T17:54:34.304Z,14.23
2023-01-26T17:57:21.735Z,13.62
2023-01-26T18:00:11.357Z,13.03
2023-01-26T18:02:58.889Z,13.88
2023-01-26T18:05:53.343Z,14.50
2023-01-26T18:08:41.094Z,13.60
2023-01-26T18:11:28.796Z,13.40
2023-01-26T18:14:16.113Z,14.45
2023-01-26T18:17:03.424Z,12.82
2023-01-26T18:19:50.734Z,12.35
2023-01-26T18:22:38.072Z,13.30
2023-01-26T18:25:25.336Z,12.43
2023-01-26T18:28:13.196Z,13.93
2023-01-26T18:31:02.320Z,14.20
2023-01-26T18:33:50.226Z,13.08
2023-01-26T18:36:37.610Z,13.25
2023-01-26T18:39:24.927Z,13.13
2023-01-26T18:42:12.645Z,13.35
2023-01-26T18:45:03.124Z,14.23
2023-01-26T18:47:51.025Z,13.13
2023-01-26T18:50:38.847Z,14.90
2023-01-26T18:53:26.495Z,14.60
2023-01-26T18:56:15.896Z,14.28
2023-01-26T18:59:03.209Z,13.45
2023-01-26T19:01:50.939Z,13.90
2023-01-26T19:04:39.096Z,14.63
2023-01-26T19:07:26.436Z,13.50
2023-01-26T19:10:13.914Z,13.70
2023-01-26T19:13:01.309Z,12.35
2023-01-26T19:15:50.160Z,13.15
2023-01-26T19:18:37.190Z,13.48
2023-01-26T19:21:25.228Z,13.35
2023-01-26T19:24:12.378Z,14.13
2023-01-26T19:26:59.746Z,12.60
2023-01-26T19:29:46.944Z,15.60
2023-01-26T19:32:34.400Z,16.42
2023-01-26T19:35:21.973Z,14.65
2023-01-26T19:38:09.365Z,14.18
2023-01-26T19:40:56.691Z,14.98
2023-01-26T19:43:44.421Z,14.10
2023-01-26T19:46:31.823Z,14.10
2023-01-26T19:49:20.895Z,13.83
2023-01-26T19:52:07.964Z,13.62
2023-01-26T19:54:55.057Z,13.22
2023-01-26T19:57:42.268Z,13.40
2023-01-26T20:00:29.572Z,14.43
2023-01-26T20:03:16.670Z,14.68
2023-01-26T20:06:04.638Z,16.65
2023-01-26T20:08:52.456Z,13.70
2023-01-26T20:11:40.268Z,15.78
2023-01-26T20:14:27.488Z,14.00
2023-01-26T20:17:14.859Z,14.95
2023-01-26T20:20:02.633Z,13.78
2023-01-26T20:22:49.986Z,14.30
2023-01-26T20:25:37.544Z,14.43
2023-01-26T20:28:24.602Z,14.40
2023-01-26T20:31:16.471Z,14.55
2023-01-26T20:34:03.405Z,14.63
2023-01-26T20:36:50.856Z,12.88
2023-01-26T20:39:38.931Z,14.05
2023-01-26T20:42:26.468Z,13.95
2023-01-26T20:45:14.720Z,13.40
2023-01-26T20:48:02.104Z,15.23
2023-01-26T20:50:49.552Z,14.93
2023-01-26T20:53:36.551Z,13.72
2023-01-26T20:56:23.780Z,14.85
2023-01-26T20:59:12.399Z,14.43
2023-01-26T21:01:59.798Z,16.07
2023-01-26T21:04:47.532Z,15.30
2023-01-26T21:07:34.968Z,14.83
2023-01-26T21:10:22.355Z,15.60
2023-01-26T21:13:09.395Z,14.95
2023-01-26T21:15:57.004Z,15.48
2023-01-26T21:18:45.260Z,14.20
2023-01-26T21:21:32.363Z,15.70
2023-01-26T21:24:19.462Z,16.90
2023-01-26T21:27:06.728Z,17.02
2023-01-26T21:29:53.810Z,15.78
2023-01-26T21:32:41.236Z,14.83
2023-01-26T21:35:28.775Z,15.68
2023-01-26T21:38:16.359Z,15.13
2023-01-26T21:41:26.653Z,15.68
2023-01-26T21:44:17.235Z,15.20
2023-01-26T21:47:04.907Z,15.23
2023-01-26T21:49:53.627Z,15.13
2023-01-26T21:52:58.951Z,15.05
2023-01-26T21:55:47.633Z,15.23
2023-01-26T21:58:52.880Z,15.03
2023-01-26T22:01:43.728Z,14.95
2023-01-26T22:04:31.762Z,14.95
2023-01-26T22:07:19.255Z,15.95
2023-01-26T22:10:06.998Z,14.40
2023-01-26T22:12:54.395Z,14.70
2023-01-26T22:15:41.671Z,14.98
2023-01-26T22:18:29.188Z,14.63
2023-01-26T22:21:16.894Z,15.93
2023-01-26T22:24:04.591Z,15.38
2023-01-26T22:26:51.542Z,15.40
2023-01-26T22:29:38.765Z,16.20
2023-01-26T22:32:26.346Z,15.65
2023-01-26T22:35:13.476Z,15.03
2023-01-26T22:38:01.559Z,14.63
2023-01-26T22:40:48.344Z,15.75
2023-01-26T22:43:35.851Z,14.25
2023-01-26T22:46:25.312Z,14.10
2023-01-26T22:49:12.269Z,15.13
2023-01-26T22:51:59.796Z,15.48
2023-01-26T22:54:46.944Z,15.55
2023-01-26T22:57:33.906Z,15.85
2023-01-26T23:00:21.106Z,15.60
2023-01-26T23:03:08.527Z,14.40
2023-01-26T23:06:01.713Z,15.03
2023-01-26T23:08:49.120Z,14.25
2023-01-26T23:11:36.603Z,13.53
2023-01-26T23:14:23.986Z,14.25
2023-01-26T23:17:11.747Z,14.43
2023-01-26T23:19:58.938Z,13.08
2023-01-26T23:22:45.954Z,13.68
2023-01-26T23:25:51.127Z,15.23
2023-01-26T23:28:41.129Z,13.70
2023-01-26T23:31:28.304Z,13.25
2023-01-26T23:34:15.577Z,13.58
2023-01-26T23:37:03.019Z,12.73
2023-01-26T23:39:50.085Z,13.20
2023-01-26T23:42:55.757Z,13.35
2023-01-26T23:45:26.330Z,13.30
2023-01-26T23:48:14.370Z,12.80
2023-01-26T23:51:04.967Z,11.90
2023-01-26T23:53:52.276Z,14.03
2023-01-26T23:56:39.473Z,13.72
2023-01-26T23:59:26.657Z,12.58
